VHHH/HKG METAR and TAF weather

Enter ICAO airport designator
Station Type Date Time Source
VHHH METAR 2020/02/22 06:30 UTC NOAA

VHHH 220630Z 26007KT 8000 NSC 24/13 Q1024 NOSIG


Station Type Date Time Source
VHHH Decoded METAR 2020/02/22 06:30 UTC NOAA

Hong Kong Inter-National Airport, Hong Kong (VHHH) 22-20N 114-11E 24M
Feb 22, 2020 - 01:30 AM EST / 2020.02.22 0630 UTC
Wind: from the W (260 degrees) at 8 MPH (7 KT):0
Visibility: 4 mile(s):0
Temperature: 75 F (24 C)
Dew Point: 55 F (13 C)
Relative Humidity: 50%
Pressure (altimeter): 30.24 in. Hg (1024 hPa)
ob: VHHH 220630Z 26007KT 8000 NSC 24/13 Q1024 NOSIG
cycle: 6

Station Type Date Time Source
VHHH TAF 2020/02/22 06:22 UTC NOAA

TAF VHHH 220500Z 2206/2312 28010KT 7000 NSC TX25/2206Z TX23/2306Z TN17/2223Z
BECMG 2209/2211 10010KT

Example: see airport list